createdAt,value
2018-02-18T00:01:11.420Z,7.03
2018-02-18T00:06:02.350Z,8.60
2018-02-18T00:10:53.304Z,8.57
2018-02-18T00:15:44.220Z,8.13
2018-02-18T00:20:35.153Z,7.20
2018-02-18T00:25:26.791Z,7.47
2018-02-18T00:30:17.697Z,8.20
2018-02-18T00:35:08.602Z,6.60
2018-02-18T00:39:59.517Z,8.73
2018-02-18T00:44:50.414Z,8.00
2018-02-18T00:49:41.329Z,7.17
2018-02-18T00:54:32.229Z,6.77
2018-02-18T00:59:23.873Z,7.40
2018-02-18T01:04:15.526Z,6.73
2018-02-18T01:09:06.482Z,7.17
2018-02-18T01:13:57.406Z,7.93
2018-02-18T01:18:48.300Z,7.50
2018-02-18T01:23:39.238Z,9.03
2018-02-18T01:28:30.143Z,7.37
2018-02-18T01:33:21.044Z,9.10
2018-02-18T01:38:12.007Z,7.47
2018-02-18T01:43:02.915Z,8.90
2018-02-18T01:47:53.832Z,8.27
2018-02-18T01:52:44.731Z,7.73
2018-02-18T01:57:35.685Z,7.43
2018-02-18T02:02:26.583Z,7.70
2018-02-18T02:07:17.504Z,7.53
2018-02-18T02:12:08.427Z,8.43
2018-02-18T02:16:59.348Z,8.40
2018-02-18T02:21:50.261Z,7.03
2018-02-18T02:26:41.163Z,7.70
2018-02-18T02:31:32.099Z,8.20
2018-02-18T02:36:23.028Z,8.00
2018-02-18T02:41:13.933Z,6.50
2018-02-18T02:46:04.822Z,8.90
2018-02-18T02:50:55.776Z,7.77
2018-02-18T02:55:46.679Z,6.60
2018-02-18T03:00:37.619Z,7.27
2018-02-18T03:05:28.527Z,7.50
2018-02-18T03:10:19.421Z,6.80
2018-02-18T03:15:10.376Z,6.50
2018-02-18T03:20:01.275Z,6.70
2018-02-18T03:24:52.183Z,7.13
2018-02-18T03:29:43.094Z,5.93
2018-02-18T03:34:33.990Z,6.17
2018-02-18T03:39:24.891Z,6.50
2018-02-18T03:44:15.785Z,7.03
2018-02-18T03:49:06.688Z,6.53
2018-02-18T03:53:57.610Z,5.83
2018-02-18T03:58:48.551Z,6.00
2018-02-18T04:03:39.448Z,6.90
2018-02-18T04:08:30.387Z,7.60
2018-02-18T04:13:21.307Z,6.40
2018-02-18T04:18:12.231Z,6.60
2018-02-18T04:23:03.121Z,6.40
2018-02-18T04:27:54.021Z,5.90
2018-02-18T04:32:44.904Z,5.33
2018-02-18T04:37:35.797Z,6.17
2018-02-18T04:42:26.740Z,6.40
2018-02-18T04:47:17.638Z,6.20
2018-02-18T04:52:08.546Z,5.60
2018-02-18T04:56:59.445Z,5.63
2018-02-18T05:01:50.413Z,6.10
2018-02-18T05:06:41.322Z,6.23
2018-02-18T05:11:32.259Z,6.20
2018-02-18T05:16:23.917Z,6.90
2018-02-18T05:21:14.822Z,7.07
2018-02-18T05:26:06.524Z,5.97
2018-02-18T05:30:57.444Z,6.60
2018-02-18T05:35:48.348Z,6.13
2018-02-18T05:40:39.267Z,5.20
2018-02-18T05:45:30.218Z,6.30
2018-02-18T05:50:21.147Z,5.80
2018-02-18T05:55:12.888Z,5.90
2018-02-18T06:00:04.545Z,5.67
2018-02-18T06:04:55.483Z,5.43
2018-02-18T06:09:46.407Z,6.60
2018-02-18T06:14:37.319Z,5.17
2018-02-18T06:19:28.227Z,5.73
2018-02-18T06:24:19.151Z,5.70
2018-02-18T06:29:10.063Z,6.40
2018-02-18T06:34:00.979Z,6.37
2018-02-18T06:38:51.881Z,6.07
2018-02-18T06:43:43.590Z,5.83
2018-02-18T06:48:34.514Z,7.10
2018-02-18T06:53:25.418Z,6.00
2018-02-18T06:58:16.347Z,5.90
2018-02-18T07:03:07.273Z,5.77
2018-02-18T07:07:58.991Z,5.80
2018-02-18T07:12:49.903Z,6.00
2018-02-18T07:17:40.808Z,5.67
2018-02-18T07:22:31.712Z,7.03
2018-02-18T07:27:22.676Z,7.03
2018-02-18T07:32:13.576Z,6.60
2018-02-18T07:37:04.486Z,6.87
2018-02-18T07:41:56.135Z,7.50
2018-02-18T07:46:47.803Z,7.37
2018-02-18T07:51:38.791Z,6.67
2018-02-18T07:56:29.713Z,6.53
2018-02-18T08:01:20.649Z,6.33
2018-02-18T08:06:12.406Z,6.37
2018-02-18T08:11:03.440Z,6.70
2018-02-18T08:15:55.091Z,6.57
2018-02-18T08:20:46.088Z,6.37
2018-02-18T08:25:37.085Z,7.07
2018-02-18T08:30:28.024Z,6.50
2018-02-18T08:35:19.021Z,6.90
2018-02-18T08:40:09.944Z,5.70
2018-02-18T08:45:00.859Z,5.00
2018-02-18T08:49:51.805Z,5.73
2018-02-18T08:54:42.831Z,6.57
2018-02-18T08:59:34.547Z,5.57
2018-02-18T09:04:25.590Z,6.60
2018-02-18T09:09:17.256Z,6.77
2018-02-18T09:14:08.235Z,5.70
2018-02-18T09:18:59.240Z,6.27
2018-02-18T09:23:50.146Z,8.00
2018-02-18T09:28:41.911Z,6.60
2018-02-18T09:33:32.921Z,6.37
2018-02-18T09:38:23.847Z,5.27
2018-02-18T09:43:14.771Z,5.27
2018-02-18T09:48:05.723Z,5.63
2018-02-18T09:52:56.648Z,5.70
2018-02-18T09:57:47.587Z,6.53
2018-02-18T10:02:38.499Z,5.83
2018-02-18T10:07:29.403Z,5.43
2018-02-18T10:12:20.322Z,6.37
2018-02-18T10:17:11.214Z,6.60
2018-02-18T10:22:02.914Z,5.93
2018-02-18T10:26:53.828Z,5.67
2018-02-18T10:31:44.750Z,3.83
2018-02-18T10:36:35.635Z,3.50
2018-02-18T10:41:26.535Z,3.20
2018-02-18T10:46:17.445Z,5.67
2018-02-18T10:51:09.076Z,4.60
2018-02-18T10:56:00.723Z,7.10
2018-02-18T11:00:51.619Z,6.70
2018-02-18T11:05:42.624Z,5.50
2018-02-18T11:10:33.518Z,6.30
2018-02-18T11:15:24.413Z,6.33
2018-02-18T11:20:15.390Z,4.77
2018-02-18T11:25:06.297Z,6.40
2018-02-18T11:29:57.224Z,8.60
2018-02-18T11:34:48.147Z,6.27
2018-02-18T11:39:39.050Z,6.63
2018-02-18T11:44:29.983Z,5.63
2018-02-18T11:49:20.896Z,6.30
2018-02-18T11:54:11.925Z,4.50
2018-02-18T11:59:03.451Z,6.93
2018-02-18T12:03:54.472Z,5.60
2018-02-18T12:08:45.501Z,9.00
2018-02-18T12:13:36.525Z,8.47
2018-02-18T12:18:27.514Z,6.37
2018-02-18T12:23:18.462Z,7.33
2018-02-18T12:28:10.204Z,7.13
2018-02-18T12:33:02.362Z,6.00
2018-02-18T12:37:53.495Z,7.17
2018-02-18T12:42:45.652Z,7.60
2018-02-18T12:47:37.030Z,4.93
2018-02-18T12:52:28.745Z,4.00
2018-02-18T12:57:19.695Z,8.20
2018-02-18T13:02:10.702Z,7.90
2018-02-18T13:07:01.653Z,6.10
2018-02-18T13:11:53.119Z,7.13
2018-02-18T13:16:44.058Z,5.60
2018-02-18T13:21:35.010Z,5.70
2018-02-18T13:26:26.045Z,5.10
2018-02-18T13:31:17.695Z,5.00
2018-02-18T13:36:09.361Z,5.10
2018-02-18T13:41:00.284Z,5.17
2018-02-18T13:45:51.203Z,6.17
2018-02-18T13:50:42.143Z,5.40
2018-02-18T13:55:33.063Z,4.80
2018-02-18T14:00:23.977Z,6.20
2018-02-18T14:05:14.884Z,6.07
2018-02-18T14:10:05.782Z,5.93
2018-02-18T14:14:56.733Z,6.63
2018-02-18T14:19:47.651Z,5.27
2018-02-18T14:24:38.554Z,5.17
2018-02-18T14:29:29.463Z,7.33
2018-02-18T14:34:20.365Z,6.00
2018-02-18T14:39:11.291Z,4.80
2018-02-18T14:44:14.541Z,4.47
2018-02-18T14:49:17.877Z,4.00
2018-02-18T14:54:20.896Z,4.30
2018-02-18T14:59:12.256Z,3.80
2018-02-18T15:04:03.181Z,4.77
2018-02-18T15:08:54.944Z,4.23
2018-02-18T15:13:45.845Z,3.90
2018-02-18T15:18:36.770Z,4.00
2018-02-18T15:23:27.692Z,4.37
2018-02-18T15:28:18.587Z,4.27
2018-02-18T15:33:09.540Z,4.10
2018-02-18T15:38:00.463Z,4.37
2018-02-18T15:42:52.123Z,4.20
2018-02-18T15:47:43.803Z,3.80
2018-02-18T15:52:34.731Z,5.13
2018-02-18T15:57:25.721Z,4.40
2018-02-18T16:02:16.696Z,5.40
2018-02-18T16:07:07.878Z,4.70
2018-02-18T16:11:58.794Z,5.00
2018-02-18T16:16:49.704Z,5.30
2018-02-18T16:21:40.631Z,4.67
2018-02-18T16:26:31.623Z,5.40
2018-02-18T16:31:22.608Z,5.93
2018-02-18T16:36:13.640Z,5.63
2018-02-18T16:41:04.547Z,5.40
2018-02-18T16:45:55.561Z,4.97
2018-02-18T16:50:47.289Z,5.90
2018-02-18T16:55:39.018Z,7.00
2018-02-18T17:00:29.955Z,7.07
2018-02-18T17:05:20.867Z,6.97
2018-02-18T17:10:11.774Z,7.00
2018-02-18T17:15:02.668Z,7.00
2018-02-18T17:19:53.574Z,7.17
2018-02-18T17:24:44.487Z,6.97
2018-02-18T17:29:36.114Z,5.93
2018-02-18T17:34:27.759Z,7.93
2018-02-18T17:39:19.447Z,7.50
2018-02-18T17:44:10.386Z,7.57
2018-02-18T17:49:01.395Z,7.70
2018-02-18T17:53:52.545Z,8.20
2018-02-18T17:58:43.883Z,7.57
2018-02-18T18:03:34.912Z,6.77
2018-02-18T18:08:25.882Z,7.30
2018-02-18T18:13:16.816Z,7.53
2018-02-18T18:18:07.745Z,6.83
2018-02-18T18:22:59.575Z,6.60
2018-02-18T18:27:50.575Z,7.67
2018-02-18T18:32:42.357Z,7.50
2018-02-18T18:37:33.335Z,6.30
2018-02-18T18:42:24.271Z,6.40
2018-02-18T18:47:15.166Z,8.57
2018-02-18T18:52:06.076Z,7.07
2018-02-18T18:56:57.015Z,6.77
2018-02-18T19:01:47.915Z,5.83
2018-02-18T19:06:38.819Z,6.30
2018-02-18T19:11:29.770Z,6.30
2018-02-18T19:16:20.849Z,5.83
2018-02-18T19:21:11.810Z,5.63
2018-02-18T19:26:02.742Z,6.03
2018-02-18T19:30:53.647Z,5.77
2018-02-18T19:35:45.375Z,5.60
2018-02-18T19:40:36.292Z,5.60
2018-02-18T19:45:27.251Z,4.93
2018-02-18T19:50:18.268Z,5.23
2018-02-18T19:55:09.966Z,5.30
2018-02-18T20:00:00.895Z,5.93
2018-02-18T20:04:51.815Z,5.37
2018-02-18T20:09:42.767Z,5.60
2018-02-18T20:14:34.488Z,5.40
2018-02-18T20:19:25.618Z,5.13
2018-02-18T20:24:16.626Z,5.10
2018-02-18T20:29:07.651Z,6.03
2018-02-18T20:33:58.607Z,6.00
2018-02-18T20:38:49.579Z,5.40
2018-02-18T20:43:40.497Z,5.93
2018-02-18T20:53:36.884Z,5.77
2018-02-18T20:58:27.986Z,5.30
2018-02-18T21:03:18.921Z,5.60
2018-02-18T21:08:09.886Z,6.23
2018-02-18T21:13:00.827Z,5.80
2018-02-18T21:17:51.787Z,6.07
2018-02-18T21:22:42.831Z,6.40
2018-02-18T21:27:34.808Z,7.07
2018-02-18T21:32:32.006Z,6.30
2018-02-18T21:37:23.757Z,4.67
2018-02-18T21:42:14.676Z,5.23
2018-02-18T21:47:05.607Z,6.30
2018-02-18T21:51:57.259Z,5.77
2018-02-18T21:56:48.177Z,5.13
2018-02-18T22:01:39.248Z,5.77
2018-02-18T22:06:30.251Z,6.30
2018-02-18T22:11:21.193Z,6.03
2018-02-18T22:16:12.086Z,7.00
2018-02-18T22:21:03.004Z,6.20
2018-02-18T22:25:53.955Z,6.03
2018-02-18T22:30:44.863Z,6.30
2018-02-18T22:35:35.803Z,6.37
2018-02-18T22:40:26.720Z,6.63
2018-02-18T22:45:17.727Z,6.67
2018-02-18T22:50:08.640Z,7.67
2018-02-18T22:54:59.563Z,6.20
2018-02-18T22:59:51.230Z,6.30
2018-02-18T23:04:42.932Z,5.77
2018-02-18T23:09:33.852Z,5.47
2018-02-18T23:14:24.771Z,6.03
2018-02-18T23:19:15.782Z,7.17
2018-02-18T23:24:07.447Z,8.63
2018-02-18T23:28:58.359Z,6.47
2018-02-18T23:33:49.275Z,6.20
2018-02-18T23:38:40.295Z,6.53
2018-02-18T23:43:31.319Z,7.17
2018-02-18T23:48:22.222Z,7.03
2018-02-18T23:53:13.142Z,6.90
2018-02-18T23:58:04.056Z,6.50
